KSOP/SOP METAR and TAF weather

Enter ICAO airport designator
Station Type Date Time Source
KSOP METAR 2019/04/25 17:56 UTC NOAA

KSOP 251756Z AUTO 22005KT 10SM CLR 28/13 A2989 RMK AO2 SLP133 T02780133 10289 20189 55010


Station Type Date Time Source
KSOP Decoded METAR 2019/04/25 17:56 UTC NOAA

Pinehurst/Southern Pines, Moore County Airport, NC, United States (KSOP) 35-14N 079-24W
Apr 25, 2019 - 01:56 PM EDT / 2019.04.25 1756 UTC
Wind: from the SW (220 degrees) at 6 MPH (5 KT):0
Visibility: 10 mile(s):0
Sky conditions: clear
Temperature: 82.0 F (27.8 C)
Dew Point: 55.9 F (13.3 C)
Relative Humidity: 40%
Pressure (altimeter): 29.89 in. Hg (1012 hPa)
Pressure tendency: 0.03 inches (1.0 hPa) lower than three hours ago
ob: KSOP 251756Z AUTO 22005KT 10SM CLR 28/13 A2989 RMK AO2 SLP133 T02780133 10289 20189 55010
cycle: 18

Station Type Date Time Source
KSOP TAF UTC NOAA

Error!

Example: see airport list